Time;durP1;ratioP1;P1;durP2;ratioP2;P2;SDS_P1;SDS_P2;PMS_P1;PMS_P2;Temp;Humidity;BMP_temperature;BMP_pressure;BME280_temperature;BME280_humidity;BME280_pressure;Samples;Min_cycle;Max_cycle;Signal;HPM_P1;HPM_P2
2022/10/11 08:01:39;;;;;;;13.27;8.30;;;;;;;8.94;89.74;102513.78;5301403;27;20459;-73
2022/10/11 08:04:10;;;;;;;12.88;8.85;;;;;;;8.97;90.37;102518.84;5320821;28;20495;-73
2022/10/11 08:06:42;;;;;;;14.63;7.85;;;;;;;9.09;90.23;102521.63;5297089;28;20032;-74
2022/10/11 08:09:13;;;;;;;14.27;8.88;;;;;;;9.16;90.42;102516.84;5293873;28;20039;-73
2022/10/11 08:11:44;;;;;;;12.52;6.63;;;;;;;9.20;89.97;102517.19;5300057;28;20532;-74
2022/10/11 08:14:16;;;;;;;13.95;8.13;;;;;;;9.27;89.70;102523.47;5303658;28;20044;-73
2022/10/11 08:16:48;;;;;;;14.82;7.30;;;;;;;9.38;89.59;102525.38;5305892;28;20040;-73
2022/10/11 08:19:22;;;;;;;10.60;6.43;;;;;;;9.56;89.36;102530.81;5305450;28;20027;-73
2022/10/11 08:21:53;;;;;;;11.02;6.20;;;;;;;9.60;89.40;102519.25;5301955;28;20463;-73
2022/10/11 08:24:24;;;;;;;12.25;6.90;;;;;;;9.67;89.16;102533.81;5298799;28;20043;-73
2022/10/11 08:26:56;;;;;;;11.23;6.55;;;;;;;9.73;88.57;102530.06;5316529;28;20032;-72
2022/10/11 08:29:27;;;;;;;9.38;6.57;;;;;;;9.82;88.53;102530.50;5305979;28;20031;-73
2022/10/11 08:31:59;;;;;;;10.48;6.32;;;;;;;9.93;89.34;102527.72;5310440;28;20024;-73
2022/10/11 08:34:30;;;;;;;13.43;6.20;;;;;;;10.05;89.27;102535.16;5313733;28;20019;-72
2022/10/11 08:37:02;;;;;;;121.40;15.90;;;;;;;10.33;92.30;102543.56;5303792;28;20391;-75
2022/10/11 08:39:33;;;;;;;9.50;5.10;;;;;;;10.44;91.40;102536.28;5319932;28;20039;-75
2022/10/11 08:42:14;;;;;;;9.60;4.32;;;;;;;10.79;93.42;102544.44;5307127;28;20386;-75
2022/10/11 08:44:52;;;;;;;13.57;6.32;;;;;;;10.91;90.87;102532.41;5294125;28;20467;-76
2022/10/11 08:47:39;;;;;;;15.05;8.60;;;;;;;11.15;91.33;102536.72;5303798;28;20424;-76
2022/10/11 08:50:20;;;;;;;8.55;5.05;;;;;;;11.44;91.17;102531.91;5291518;28;20020;-75
2022/10/11 08:53:01;;;;;;;11.32;4.93;;;;;;;11.37;87.56;102538.72;5313164;28;20032;-76
2022/10/11 08:55:42;;;;;;;9.02;4.60;;;;;;;11.38;85.17;102546.00;5301720;28;20024;-75
2022/10/11 08:58:18;;;;;;;9.88;3.90;;;;;;;11.16;81.36;102543.97;5292545;28;20029;-75
2022/10/11 09:00:53;;;;;;;6.95;3.67;;;;;;;11.56;84.68;102542.94;5295381;28;20044;-74
2022/10/11 09:03:41;;;;;;;12.98;4.75;;;;;;;11.46;82.32;102551.09;5296216;28;20025;-76
2022/10/11 09:06:37;;;;;;;12.32;4.30;;;;;;;11.42;80.57;102552.69;5291636;28;20119;-76
2022/10/11 09:09:28;;;;;;;8.35;4.63;;;;;;;11.46;82.92;102545.56;5296167;28;20063;-76
2022/10/11 09:12:17;;;;;;;13.32;4.70;;;;;;;11.78;85.17;102542.13;5291781;28;20078;-76
2022/10/11 09:14:55;;;;;;;11.00;4.60;;;;;;;11.68;82.75;102549.22;5295259;28;20507;-77
2022/10/11 09:17:30;;;;;;;7.50;4.10;;;;;;;12.08;84.11;102550.91;5282563;28;20044;-82
2022/10/11 09:20:19;;;;;;;13.43;4.30;;;;;;;12.17;83.12;102549.34;5279208;28;20120;-75
2022/10/11 09:23:16;;;;;;;13.73;3.80;;;;;;;12.08;78.63;102553.69;5276943;28;20435;-75
2022/10/11 09:26:00;;;;;;;8.90;4.15;;;;;;;12.29;80.93;102549.19;5281843;28;20387;-73
2022/10/11 09:29:02;;;;;;;11.20;4.60;;;;;;;12.25;77.32;102556.41;5275763;28;20067;-75
2022/10/11 09:31:36;;;;;;;9.45;3.08;;;;;;;12.40;78.12;102558.53;5281952;28;20126;-77
2022/10/11 09:34:12;;;;;;;8.57;3.15;;;;;;;12.30;77.64;102552.84;5301329;28;20046;-75
2022/10/11 09:36:53;;;;;;;8.90;3.17;;;;;;;12.17;74.70;102551.31;5280386;28;20036;-74
2022/10/11 09:39:34;;;;;;;11.70;4.57;;;;;;;12.47;77.67;102550.81;5271774;28;20032;-72
2022/10/11 09:42:10;;;;;;;7.25;2.80;;;;;;;12.44;77.20;102551.31;5263986;28;20028;-75
2022/10/11 09:44:47;;;;;;;8.35;3.50;;;;;;;12.49;76.48;102558.91;5277934;28;20044;-74
2022/10/11 09:47:22;;;;;;;8.15;3.10;;;;;;;12.43;74.69;102549.66;5281434;28;20037;-77
2022/10/11 09:50:02;;;;;;;;;;;;;;;12.52;74.74;102548.06;5276404;28;20056;-75
2022/10/11 09:52:33;;;;;;;11.10;4.97;;;;;;;12.35;72.26;102547.34;5293324;28;19923;-75
2022/10/11 09:55:05;;;;;;;8.15;3.35;;;;;;;12.64;76.06;102544.31;5292306;28;20020;-75
2022/10/11 09:57:39;;;;;;;14.65;3.40;;;;;;;12.64;72.12;102552.66;5275982;28;20416;-77
2022/10/11 10:00:25;;;;;;;9.90;2.83;;;;;;;12.71;73.66;102556.94;5282030;28;20043;-74
2022/10/11 10:03:00;;;;;;;9.90;2.80;;;;;;;12.94;72.84;102550.19;5277278;28;20480;-74
2022/10/11 10:05:35;;;;;;;11.82;3.20;;;;;;;12.86;70.73;102550.66;5293853;28;20060;-75
2022/10/11 10:08:09;;;;;;;6.38;2.67;;;;;;;13.10;72.91;102550.31;5285480;28;20024;-75
2022/10/11 10:10:42;;;;;;;8.52;2.42;;;;;;;12.91;68.39;102552.63;5297344;28;20056;-76
2022/10/11 10:13:24;;;;;;;7.63;2.88;;;;;;;13.18;69.76;102547.88;5291457;28;20032;-76
2022/10/11 10:16:00;;;;;;;9.18;2.22;;;;;;;12.97;63.59;102554.38;5279370;28;20387;-75
2022/10/11 10:18:49;;;;;;;9.95;2.38;;;;;;;12.95;65.87;102549.06;5276692;28;20048;-75
2022/10/11 10:21:35;;;;;;;8.18;2.50;;;;;;;13.00;66.49;102543.53;5282223;28;20383;-75
2022/10/11 10:24:16;;;;;;;7.45;2.85;;;;;;;13.09;65.88;102545.84;5283561;28;20025;-77
2022/10/11 10:27:06;;;;;;;9.48;3.00;;;;;;;13.02;65.45;102546.09;5297992;28;20031;-76
2022/10/11 10:29:37;;;;;;;8.70;3.47;;;;;;;13.05;67.79;102543.59;5292842;28;20033;-75
2022/10/11 10:32:15;;;;;;;10.38;3.17;;;;;;;13.22;67.59;102539.84;5290553;28;20026;-75
2022/10/11 10:35:05;;;;;;;7.30;2.78;;;;;;;13.69;70.12;102541.88;5272608;28;20051;-76
2022/10/11 10:38:15;;;;;;;11.38;2.42;;;;;;;13.51;65.10;102542.31;5286452;28;20032;-74
2022/10/11 10:41:01;;;;;;;8.32;2.65;;;;;;;13.55;62.85;102547.09;5261635;28;20047;-81
2022/10/11 10:43:38;;;;;;;7.28;2.13;;;;;;;13.53;62.58;102545.69;5293934;28;20029;-84
2022/10/11 10:46:46;;;;;;;7.60;2.45;;;;;;;13.74;63.45;102541.91;5292178;28;20032;-82
2022/10/11 10:49:25;;;;;;;4.13;2.17;;;;;;;13.69;62.20;102544.66;5286697;28;20386;-80
2022/10/11 10:52:44;;;;;;;8.32;2.50;;;;;;;13.78;62.00;102540.25;5282948;28;20016;-79
2022/10/11 10:56:11;;;;;;;11.05;3.90;;;;;;;13.84;61.37;102539.16;5282422;28;20036;-76
2022/10/11 11:02:40;;;;;;;8.90;2.42;;;;;;;13.93;60.19;102533.91;5276132;28;20134;-78
2022/10/11 11:05:22;;;;;;;7.65;3.25;;;;;;;13.97;59.97;102531.41;5279717;28;20059;-80
2022/10/11 11:08:22;;;;;;;10.88;3.42;;;;;;;13.89;58.61;102533.63;5288356;28;20052;-76
2022/10/11 11:11:06;;;;;;;5.03;2.10;;;;;;;13.95;61.56;102533.63;5276136;28;20104;-75
2022/10/11 11:14:09;;;;;;;5.20;2.15;;;;;;;13.95;59.14;102530.84;5288006;28;20017;-76
2022/10/11 11:16:49;;;;;;;9.48;2.20;;;;;;;13.96;56.66;102532.50;5296666;28;20035;-75
2022/10/11 11:19:26;;;;;;;7.90;3.00;;;;;;;14.08;55.88;102531.19;5286707;28;20020;-77
2022/10/11 11:22:05;;;;;;;7.43;2.22;;;;;;;14.07;55.48;102523.94;5291006;28;20024;-76
2022/10/11 11:24:58;;;;;;;4.82;2.38;;;;;;;14.16;58.91;102526.19;5273931;28;20113;-74
2022/10/11 11:28:15;;;;;;;10.07;2.45;;;;;;;14.07;57.64;102523.94;5280351;28;20024;-75
2022/10/11 11:31:08;;;;;;;9.07;2.33;;;;;;;14.07;56.63;102520.31;5282643;28;20491;-75
2022/10/11 11:33:39;;;;;;;6.53;2.55;;;;;;;14.34;58.37;102518.19;5297091;28;20356;-75
2022/10/11 11:36:17;;;;;;;5.20;2.22;;;;;;;14.22;56.55;102520.38;5298356;28;20077;-74
2022/10/11 11:39:02;;;;;;;13.90;2.70;;;;;;;14.33;56.81;102510.06;5287942;28;20047;-75
2022/10/11 11:41:42;;;;;;;7.03;2.28;;;;;;;14.44;58.12;102513.72;5297467;28;20131;-75
2022/10/11 11:44:36;;;;;;;6.30;2.20;;;;;;;14.55;58.09;102515.47;5285186;28;20507;-75
2022/10/11 11:47:19;;;;;;;9.20;2.45;;;;;;;14.63;55.83;102508.50;5278937;28;20055;-75
2022/10/11 11:50:21;;;;;;;10.25;5.32;;;;;;;14.90;58.85;102503.47;5283976;28;20032;-75
2022/10/11 11:52:59;;;;;;;8.90;3.00;;;;;;;14.86;55.57;102495.97;5290157;28;20048;-76
2022/10/11 11:55:54;;;;;;;6.82;2.65;;;;;;;14.96;58.54;102498.75;5281697;28;20036;-73
2022/10/11 11:58:31;;;;;;;6.95;2.28;;;;;;;14.91;55.24;102493.16;5268146;28;20048;-74
2022/10/11 12:01:32;;;;;;;7.20;2.67;;;;;;;15.17;58.37;102483.66;5280828;28;20040;-74
2022/10/11 12:04:11;;;;;;;10.00;3.20;;;;;;;15.13;54.95;102485.31;5282121;28;20443;-73
2022/10/11 12:06:43;;;;;;;11.57;7.57;;;;;;;15.13;54.23;102479.72;5287739;28;20035;-76
2022/10/11 12:09:17;;;;;;;10.52;3.13;;;;;;;15.32;54.02;102476.38;5292960;28;20020;-75
2022/10/11 12:11:55;;;;;;;8.07;2.30;;;;;;;15.32;53.79;102473.56;5296041;28;20059;-75
2022/10/11 12:14:32;;;;;;;8.27;2.20;;;;;;;15.31;52.92;102474.69;5276690;28;20024;-75
2022/10/11 12:17:07;;;;;;;6.85;2.40;;;;;;;15.37;53.22;102466.00;5279847;28;20028;-75
2022/10/11 12:19:58;;;;;;;9.20;2.80;;;;;;;15.45;52.88;102467.38;5287236;28;20028;-75
2022/10/11 12:22:29;;;;;;;10.38;2.40;;;;;;;15.46;53.17;102473.81;5272286;28;20032;-75
2022/10/11 12:25:20;;;;;;;8.93;3.10;;;;;;;15.68;55.86;102468.72;5297695;28;20031;-75
2022/10/11 12:27:54;;;;;;;8.70;3.05;;;;;;;15.71;54.71;102473.78;5302549;28;20123;-75
2022/10/11 12:30:49;;;;;;;6.70;3.15;;;;;;;15.76;52.75;102467.31;5290556;28;20035;-75
2022/10/11 12:33:30;;;;;;;10.48;3.00;;;;;;;15.84;53.29;102469.53;5291459;28;20036;-74
2022/10/11 12:36:20;;;;;;;9.52;2.47;;;;;;;15.78;51.85;102473.47;5285883;28;20086;-74
2022/10/11 12:39:19;;;;;;;6.32;2.15;;;;;;;15.98;53.68;102478.16;5277289;28;20029;-76
2022/10/11 12:42:05;;;;;;;7.50;2.15;;;;;;;16.02;53.97;102474.47;5286351;28;20024;-76
2022/10/11 12:44:37;;;;;;;6.15;2.40;;;;;;;16.04;50.67;102468.59;5290314;28;20031;-76
2022/10/11 12:47:29;;;;;;;7.53;2.20;;;;;;;15.97;51.12;102460.50;5277168;28;20036;-75
2022/10/11 12:50:16;;;;;;;10.50;2.83;;;;;;;15.99;51.31;102458.25;5284137;28;20384;-76
2022/10/11 12:53:05;;;;;;;10.05;4.75;;;;;;;15.86;51.09;102456.09;5274559;28;20021;-75
2022/10/11 12:55:44;;;;;;;12.40;4.00;;;;;;;16.01;52.09;102455.19;5284408;28;20033;-75
2022/10/11 12:58:23;;;;;;;7.03;2.70;;;;;;;15.98;50.92;102455.78;5290463;28;20034;-74
2022/10/11 13:00:55;;;;;;;8.32;3.03;;;;;;;16.07;50.65;102445.63;5295675;28;20040;-74
2022/10/11 13:03:34;;;;;;;6.43;2.53;;;;;;;16.33;53.57;102453.88;5299629;28;20093;-75
2022/10/11 13:06:11;;;;;;;8.85;2.47;;;;;;;16.25;51.74;102444.97;5299718;28;20033;-76
2022/10/11 13:08:48;;;;;;;10.48;3.10;;;;;;;16.24;50.48;102442.47;5277747;28;20024;-76
2022/10/11 13:11:26;;;;;;;6.68;2.78;;;;;;;16.31;50.80;102451.38;5285029;28;20036;-77
2022/10/11 13:14:04;;;;;;;9.00;3.15;;;;;;;16.15;50.35;102441.38;5275056;28;20021;-76
2022/10/11 13:16:57;;;;;;;6.45;2.65;;;;;;;16.28;51.24;102441.59;5290822;28;20106;-77
2022/10/11 13:19:31;;;;;;;15.35;2.72;;;;;;;16.27;51.09;102447.47;5305149;28;20036;-76
2022/10/11 13:22:14;;;;;;;8.45;2.40;;;;;;;16.20;50.97;102439.38;5278546;28;20113;-77
2022/10/11 13:24:46;;;;;;;9.88;2.08;;;;;;;16.04;51.23;102438.66;5279288;28;20025;-76
2022/10/11 13:27:20;;;;;;;10.52;6.22;;;;;;;15.93;51.85;102437.03;5293993;28;20031;-76
2022/10/11 13:29:58;;;;;;;8.50;4.30;;;;;;;15.98;52.10;102439.81;5294428;28;20537;-77
2022/10/11 13:32:31;;;;;;;9.07;3.53;;;;;;;15.99;51.96;102429.44;5281236;28;20442;-78
2022/10/11 13:35:15;;;;;;;11.88;6.00;;;;;;;16.06;51.83;102436.41;5276864;28;20381;-77
2022/10/11 13:37:47;;;;;;;6.13;2.83;;;;;;;15.90;51.09;102432.03;5297653;28;20379;-76
2022/10/11 13:40:20;;;;;;;7.00;2.63;;;;;;;16.09;52.88;102433.03;5284406;28;20029;-76
2022/10/11 13:42:52;;;;;;;7.53;2.63;;;;;;;15.96;51.10;102430.03;5268909;28;20032;-78
2022/10/11 13:45:29;;;;;;;8.65;2.35;;;;;;;16.07;51.84;102424.06;5284998;28;20036;-76
2022/10/11 13:48:00;;;;;;;9.60;2.72;;;;;;;16.00;51.54;102425.50;5289434;28;20028;-77
2022/10/11 13:50:33;;;;;;;7.53;3.15;;;;;;;15.88;51.98;102423.06;5286390;28;20035;-77
2022/10/11 13:53:10;;;;;;;8.55;3.03;;;;;;;15.77;52.11;102427.03;5285147;28;20400;-79
2022/10/11 13:55:41;;;;;;;9.00;3.15;;;;;;;15.74;52.42;102422.84;5287898;28;20033;-78
2022/10/11 13:58:22;;;;;;;12.73;3.50;;;;;;;15.66;53.13;102424.25;5285320;28;20020;-77
2022/10/11 14:00:59;;;;;;;5.95;2.88;;;;;;;15.61;53.50;102418.66;5284586;28;20041;-78
2022/10/11 14:03:44;;;;;;;11.52;2.90;;;;;;;15.56;53.86;102429.88;5284427;28;20035;-77
2022/10/11 14:06:15;;;;;;;11.20;2.87;;;;;;;15.54;52.50;102418.13;5277931;28;20483;-79
2022/10/11 14:08:55;;;;;;;9.73;2.60;;;;;;;15.63;53.69;102427.63;5273583;28;20362;-78
2022/10/11 14:11:38;;;;;;;9.50;2.40;;;;;;;15.58;56.47;102430.44;5290419;28;20174;-77
2022/10/11 14:14:28;;;;;;;6.93;1.92;;;;;;;15.65;56.28;102418.97;5284355;28;20020;-77
2022/10/11 14:17:13;;;;;;;9.20;3.10;;;;;;;15.58;53.35;102422.03;5300514;28;20066;-76
2022/10/11 14:19:47;;;;;;;5.93;2.30;;;;;;;15.47;51.92;102422.34;5280714;28;20399;-78
2022/10/11 14:22:18;;;;;;;8.00;2.65;;;;;;;15.39;51.90;102420.97;5280566;28;20073;-78
2022/10/11 14:24:50;;;;;;;8.82;2.50;;;;;;;15.42;52.32;102414.84;5295263;28;20019;-79
2022/10/11 14:27:23;;;;;;;9.00;3.35;;;;;;;15.39;53.45;102412.59;5296724;28;20033;-78
2022/10/11 14:29:54;;;;;;;11.05;3.03;;;;;;;15.30;52.30;102411.53;5270595;28;20090;-79
2022/10/11 14:32:32;;;;;;;10.00;2.97;;;;;;;15.37;54.31;102407.31;5276059;28;20036;-79
2022/10/11 14:35:03;;;;;;;10.52;3.55;;;;;;;15.42;53.89;102403.66;5281347;28;20117;-79
2022/10/11 14:37:35;;;;;;;10.73;2.95;;;;;;;15.39;52.82;102407.00;5280509;28;20467;-79
2022/10/11 14:40:18;;;;;;;11.85;2.67;;;;;;;15.57;52.96;102399.94;5287842;28;20360;-79
2022/10/11 14:42:50;;;;;;;12.38;3.20;;;;;;;15.51;51.33;102406.69;5277857;28;20025;-79
2022/10/11 14:45:21;;;;;;;7.53;2.90;;;;;;;15.49;51.56;102398.59;5292934;28;20102;-78
2022/10/11 14:47:54;;;;;;;8.70;4.22;;;;;;;15.56;51.69;102396.31;5300652;28;20020;-76
2022/10/11 14:50:31;;;;;;;9.75;3.17;;;;;;;15.57;52.17;102398.00;5289099;28;20023;-78
2022/10/11 14:53:04;;;;;;;6.85;2.53;;;;;;;15.59;51.43;102397.72;5299108;28;20028;-77
2022/10/11 14:55:37;;;;;;;11.63;4.00;;;;;;;15.75;52.85;102395.72;5285480;28;20040;-79
2022/10/11 14:58:12;;;;;;;14.95;5.57;;;;;;;15.77;52.64;102401.84;5285183;28;20039;-78
2022/10/11 15:00:44;;;;;;;10.00;3.90;;;;;;;15.72;51.11;102408.34;5279714;28;20044;-81
2022/10/11 15:03:15;;;;;;;9.40;4.15;;;;;;;15.80;51.93;102407.72;5286203;28;20040;-77
2022/10/11 15:05:46;;;;;;;10.50;2.95;;;;;;;15.73;51.02;102397.97;5281687;28;20402;-80
2022/10/11 15:08:18;;;;;;;12.25;2.78;;;;;;;15.74;50.87;102394.88;5294078;28;20024;-78
2022/10/11 15:10:50;;;;;;;11.68;2.80;;;;;;;15.65;51.85;102386.22;5284548;28;20059;-80
2022/10/11 15:13:22;;;;;;;4.93;2.20;;;;;;;15.71;51.67;102381.47;5290215;28;20066;-78
2022/10/11 15:15:53;;;;;;;8.73;2.72;;;;;;;15.75;52.22;102384.53;5286285;28;20146;-81
2022/10/11 15:18:24;;;;;;;9.45;3.38;;;;;;;15.76;52.38;102381.44;5286719;28;20364;-81
2022/10/11 15:20:57;;;;;;;12.27;3.25;;;;;;;15.76;53.09;102381.44;5280666;28;20025;-81
2022/10/11 15:23:28;;;;;;;7.75;2.45;;;;;;;15.70;52.48;102376.16;5280907;28;20028;-80
2022/10/11 15:26:00;;;;;;;8.88;2.70;;;;;;;15.72;52.31;102369.19;5288592;28;20024;-81
2022/10/11 15:28:32;;;;;;;9.10;2.60;;;;;;;15.71;51.88;102375.03;5300102;28;20049;-79
2022/10/11 15:31:08;;;;;;;7.97;3.53;;;;;;;15.61;51.96;102373.94;5291324;28;20039;-79
2022/10/11 15:33:40;;;;;;;8.63;2.72;;;;;;;15.65;52.64;102369.44;5286582;28;20052;-80
2022/10/11 15:36:18;;;;;;;8.50;2.78;;;;;;;15.64;52.96;102373.34;5297855;28;20111;-75
2022/10/11 15:38:49;;;;;;;9.55;2.50;;;;;;;15.64;55.54;102364.13;5298146;28;20031;-79
2022/10/11 15:41:22;;;;;;;7.00;2.63;;;;;;;15.62;54.56;102364.44;5284361;28;20032;-79
2022/10/11 15:43:54;;;;;;;11.77;2.88;;;;;;;15.56;54.68;102365.56;5280378;28;20418;-79
2022/10/11 15:46:25;;;;;;;7.88;2.70;;;;;;;15.56;54.68;102365.56;5285519;28;20032;-79
2022/10/11 15:48:56;;;;;;;8.15;2.72;;;;;;;15.39;52.84;102360.34;5282382;28;20028;-79
2022/10/11 15:51:28;;;;;;;9.60;3.10;;;;;;;15.35;52.61;102364.00;5275286;28;20032;-79
2022/10/11 15:53:59;;;;;;;8.60;2.38;;;;;;;15.31;54.44;102358.13;5284625;28;20047;-79
2022/10/11 15:56:30;;;;;;;9.85;3.40;;;;;;;15.26;53.43;102360.09;5285396;28;20102;-79
2022/10/11 15:59:02;;;;;;;5.88;3.00;;;;;;;15.34;55.35;102365.94;5280412;28;20024;-81
2022/10/11 16:01:36;;;;;;;9.25;3.30;;;;;;;15.22;54.15;102371.84;5300343;28;20055;-79
2022/10/11 16:04:08;;;;;;;8.95;2.65;;;;;;;15.19;54.02;102361.25;5285701;28;20110;-80
2022/10/11 16:06:40;;;;;;;7.57;2.65;;;;;;;15.11;54.21;102366.56;5283968;28;20058;-80
2022/10/11 16:09:11;;;;;;;8.95;2.45;;;;;;;15.20;56.91;102357.31;5302558;28;20036;-80
2022/10/11 16:11:42;;;;;;;10.52;2.50;;;;;;;15.02;55.40;102357.94;5304128;28;20028;-81
2022/10/11 16:14:14;;;;;;;8.00;3.15;;;;;;;14.97;55.32;102357.94;5295303;28;20139;-81
2022/10/11 16:16:45;;;;;;;9.75;2.75;;;;;;;14.97;57.13;102357.94;5271435;28;20024;-81
2022/10/11 16:19:19;;;;;;;8.65;2.80;;;;;;;14.94;56.39;102358.50;5285396;28;20039;-81
2022/10/11 16:21:50;;;;;;;8.43;3.03;;;;;;;14.86;56.02;102361.88;5283125;28;20017;-80
2022/10/11 16:24:21;;;;;;;11.20;3.80;;;;;;;14.77;56.86;102359.66;5286688;28;20024;-79
2022/10/11 16:26:53;;;;;;;8.32;3.30;;;;;;;14.69;57.26;102354.63;5294759;28;20021;-77
2022/10/11 16:29:24;;;;;;;10.05;3.75;;;;;;;14.69;58.09;102357.44;5289574;28;20020;-76
2022/10/11 16:31:55;;;;;;;16.15;12.10;;;;;;;14.57;58.40;102366.13;5306375;28;20027;-80
2022/10/11 16:34:27;;;;;;;7.88;3.70;;;;;;;14.64;58.96;102360.22;5274944;28;20020;-80
2022/10/11 16:36:58;;;;;;;10.35;3.25;;;;;;;14.52;58.67;102352.13;5278488;28;20025;-80
2022/10/11 16:39:29;;;;;;;10.25;4.40;;;;;;;14.51;59.59;102356.00;5298700;28;20386;-75
2022/10/11 16:42:00;;;;;;;11.13;4.78;;;;;;;14.56;61.45;102366.38;5305233;28;20031;-74
2022/10/11 16:44:32;;;;;;;13.40;6.00;;;;;;;14.44;59.94;102369.41;5297631;28;20466;-80
2022/10/11 16:47:07;;;;;;;15.27;6.45;;;;;;;14.33;60.44;102359.38;5289804;28;20025;-82
2022/10/11 16:49:38;;;;;;;16.05;8.00;;;;;;;14.28;60.92;102365.78;5284834;28;20028;-79
2022/10/11 16:52:12;;;;;;;15.90;8.27;;;;;;;14.25;61.25;102365.50;5294207;28;20020;-79
2022/10/11 16:54:45;;;;;;;15.07;8.93;;;;;;;14.13;61.74;102360.19;5287624;28;20372;-79
2022/10/11 16:57:18;;;;;;;14.85;6.50;;;;;;;14.05;62.41;102363.53;5286557;28;20021;-80
2022/10/11 16:59:50;;;;;;;15.77;5.38;;;;;;;13.96;62.74;102371.59;5285741;28;20061;-77
2022/10/11 17:02:25;;;;;;;12.90;5.93;;;;;;;13.91;63.95;102366.84;5280235;28;20025;-71
2022/10/11 17:04:56;;;;;;;6.75;4.05;;;;;;;13.87;64.11;102362.91;5291867;28;20031;-70
2022/10/11 17:07:28;;;;;;;11.35;3.78;;;;;;;13.83;64.20;102375.75;5294545;28;21851;-70
2022/10/11 17:10:00;;;;;;;9.85;3.78;;;;;;;13.79;64.16;102371.81;5292173;28;20024;-69
2022/10/11 17:12:34;;;;;;;15.70;3.97;;;;;;;13.70;64.76;102377.13;5281661;28;20039;-69
2022/10/11 17:15:06;;;;;;;13.40;4.38;;;;;;;13.66;64.84;102372.34;5280369;28;20023;-69
2022/10/11 17:17:38;;;;;;;12.00;3.97;;;;;;;13.56;65.64;102373.16;5283550;28;20506;-71
2022/10/11 17:20:09;;;;;;;12.90;5.97;;;;;;;13.64;64.76;102380.16;5287983;28;20036;-70
2022/10/11 17:22:40;;;;;;;32.70;25.25;;;;;;;13.53;65.57;102378.44;5269750;28;20016;-69
2022/10/11 17:25:11;;;;;;;32.25;27.40;;;;;;;13.39;65.84;102378.91;5285268;28;20043;-70
2022/10/11 17:27:43;;;;;;;47.00;27.45;;;;;;;13.46;65.62;102382.28;5283427;28;20067;-69
2022/10/11 17:30:15;;;;;;;33.85;20.42;;;;;;;13.43;66.30;102384.81;5294605;28;20028;-70
2022/10/11 17:32:46;;;;;;;29.85;16.55;;;;;;;13.39;66.65;102387.28;5283466;28;20027;-70
